Time;durP1;ratioP1;P1;durP2;ratioP2;P2;SDS_P1;SDS_P2;PMS_P1;PMS_P2;Temp;Humidity;BMP_temperature;BMP_pressure;BME280_temperature;BME280_humidity;BME280_pressure;Samples;Min_cycle;Max_cycle;Signal;HPM_P1;HPM_P2
2022/08/24 00:02:00;;;;;;;14.48;11.73;;;23.00;66.40;;;;;;5115898;28;20035;-74
2022/08/24 00:04:26;;;;;;;17.15;11.68;;;23.00;67.00;;;;;;5115900;28;20042;-75
2022/08/24 00:06:51;;;;;;;17.67;11.77;;;23.00;67.40;;;;;;5115835;28;20028;-74
2022/08/24 00:09:17;;;;;;;14.85;11.15;;;23.10;67.50;;;;;;5114925;28;20087;-74
2022/08/24 00:11:43;;;;;;;16.17;11.35;;;23.10;67.30;;;;;;5115471;28;20079;-74
2022/08/24 00:14:10;;;;;;;17.52;11.35;;;23.00;67.10;;;;;;5115678;28;20050;-74
2022/08/24 00:16:35;;;;;;;13.55;10.25;;;22.80;67.30;;;;;;5114742;28;20017;-74
2022/08/24 00:19:02;;;;;;;14.68;11.43;;;22.70;67.70;;;;;;5115612;28;20021;-74
2022/08/24 00:21:27;;;;;;;15.73;11.10;;;22.80;67.80;;;;;;5115562;28;20028;-74
2022/08/24 00:23:53;;;;;;;13.68;10.32;;;22.80;67.80;;;;;;5114774;28;20058;-74
2022/08/24 00:26:19;;;;;;;15.07;11.25;;;22.80;67.50;;;;;;5115469;28;20024;-74
2022/08/24 00:28:44;;;;;;;17.02;10.30;;;22.80;67.20;;;;;;5113638;28;20028;-74
2022/08/24 00:31:10;;;;;;;13.43;9.50;;;22.80;67.00;;;;;;5115367;28;20032;-74
2022/08/24 00:33:36;;;;;;;14.20;9.65;;;22.70;67.20;;;;;;5115224;28;20035;-74
2022/08/24 00:36:03;;;;;;;12.07;9.65;;;22.70;67.50;;;;;;5115269;28;20024;-74
2022/08/24 00:38:29;;;;;;;15.65;9.68;;;22.70;67.20;;;;;;5114203;28;20024;-74
2022/08/24 00:40:55;;;;;;;15.23;10.13;;;22.70;67.00;;;;;;5115144;28;20049;-74
2022/08/24 00:43:25;;;;;;;13.52;9.88;;;22.70;67.20;;;;;;5114101;28;20047;-74
2022/08/24 00:45:59;;;;;;;14.32;10.57;;;22.60;67.30;;;;;;5114097;28;20040;-74
2022/08/24 00:48:29;;;;;;;14.25;10.38;;;22.60;67.50;;;;;;5114045;28;20031;-74
2022/08/24 00:50:59;;;;;;;13.13;9.75;;;22.60;67.50;;;;;;5113958;28;20024;-74
2022/08/24 00:53:31;;;;;;;14.15;10.43;;;22.60;67.40;;;;;;5114911;28;20024;-74
2022/08/24 00:56:05;;;;;;;14.93;10.57;;;22.60;67.40;;;;;;5115089;28;20031;-74
2022/08/24 00:58:36;;;;;;;14.30;10.20;;;22.60;67.50;;;;;;5114800;28;20024;-74
2022/08/24 01:01:05;;;;;;;14.93;10.35;;;22.50;67.60;;;;;;5114814;28;20042;-74
2022/08/24 01:03:31;;;;;;;13.30;9.82;;;22.50;67.40;;;;;;5114725;28;20056;-74
2022/08/24 01:05:58;;;;;;;12.90;10.00;;;22.50;67.10;;;;;;5114649;28;20088;-74
2022/08/24 01:08:24;;;;;;;14.25;10.98;;;22.50;67.00;;;;;;5114650;28;20030;-74
2022/08/24 01:10:59;;;;;;;13.57;10.75;;;22.40;67.30;;;;;;5114399;28;20052;-74
2022/08/24 01:13:26;;;;;;;17.48;12.18;;;22.30;67.50;;;;;;5114670;28;20061;-74
2022/08/24 01:15:56;;;;;;;16.30;12.90;;;22.20;67.70;;;;;;5114628;28;20459;-74
2022/08/24 01:21:33;;;;;;;18.65;13.05;;;22.30;68.80;;;;;;5114632;28;20077;-74
2022/08/24 01:24:04;;;;;;;20.30;14.48;;;22.30;68.80;;;;;;5113413;28;20024;-74
2022/08/24 01:26:39;;;;;;;20.53;13.97;;;22.20;68.90;;;;;;5114366;28;20050;-74
2022/08/24 01:29:10;;;;;;;21.02;14.23;;;22.20;68.90;;;;;;5114165;28;20254;-74
2022/08/24 01:31:36;;;;;;;22.55;14.70;;;22.20;69.40;;;;;;5114241;28;20099;-74
2022/08/24 01:34:02;;;;;;;22.83;14.77;;;22.30;69.30;;;;;;5114175;28;20020;-74
2022/08/24 01:36:33;;;;;;;18.63;14.68;;;22.30;69.30;;;;;;5114113;28;20028;-74
2022/08/24 01:39:08;;;;;;;20.05;14.02;;;22.20;69.70;;;;;;5113617;28;20076;-74
2022/08/24 01:41:34;;;;;;;19.83;14.88;;;22.20;69.60;;;;;;5113961;28;20024;-74
2022/08/24 01:43:59;;;;;;;18.67;14.02;;;22.20;69.40;;;;;;5114031;28;20037;-74
2022/08/24 01:46:25;;;;;;;20.52;14.55;;;22.20;68.70;;;;;;5113972;28;20035;-74
2022/08/24 01:48:52;;;;;;;19.85;14.90;;;22.10;69.10;;;;;;5113948;28;20097;-75
2022/08/24 01:51:17;;;;;;;21.52;14.85;;;22.10;69.00;;;;;;5112897;28;20024;-74
2022/08/24 01:53:43;;;;;;;19.70;14.38;;;22.10;69.50;;;;;;5113767;28;20032;-75
2022/08/24 01:56:08;;;;;;;20.92;14.95;;;22.10;69.30;;;;;;5113838;28;20020;-74
2022/08/24 01:58:34;;;;;;;19.83;14.45;;;22.00;69.10;;;;;;5112987;28;20459;-74
2022/08/24 02:01:00;;;;;;;19.25;14.68;;;21.90;69.60;;;;;;5113770;28;20048;-74
2022/08/24 02:03:25;;;;;;;23.77;15.25;;;21.90;69.80;;;;;;5113579;28;20039;-75
2022/08/24 02:05:51;;;;;;;20.92;14.82;;;21.80;70.00;;;;;;5113688;28;20039;-75
2022/08/24 02:08:17;;;;;;;18.80;14.13;;;21.80;69.80;;;;;;5113666;28;20028;-74
2022/08/24 02:10:43;;;;;;;20.92;13.98;;;21.90;69.90;;;;;;5113478;28;20434;-74
2022/08/24 02:13:08;;;;;;;17.45;13.88;;;21.80;69.50;;;;;;5113569;28;20061;-74
2022/08/24 02:15:38;;;;;;;21.08;14.55;;;21.70;69.60;;;;;;5113548;28;20032;-74
2022/08/24 02:18:05;;;;;;;20.23;13.57;;;21.60;69.60;;;;;;5112563;28;20107;-74
2022/08/24 02:20:31;;;;;;;17.60;14.02;;;21.60;69.50;;;;;;5113516;28;20020;-74
2022/08/24 02:22:57;;;;;;;27.48;14.25;;;21.70;69.60;;;;;;5113494;28;20039;-74
2022/08/24 02:25:23;;;;;;;20.58;13.45;;;21.60;69.80;;;;;;5112556;28;20020;-74
2022/08/24 02:27:49;;;;;;;19.92;13.65;;;21.60;69.80;;;;;;5112509;28;20055;-74
2022/08/24 02:30:16;;;;;;;18.95;13.85;;;21.70;69.60;;;;;;5113365;28;20024;-74
2022/08/24 02:32:42;;;;;;;20.90;14.15;;;21.60;69.70;;;;;;5113317;28;20062;-74
2022/08/24 02:35:09;;;;;;;18.33;14.00;;;21.70;69.70;;;;;;5113400;28;20032;-75
2022/08/24 02:37:35;;;;;;;19.75;13.95;;;21.70;69.60;;;;;;5113410;28;20040;-74
2022/08/24 02:40:01;;;;;;;21.98;15.38;;;21.70;69.10;;;;;;5113470;28;20050;-74
2022/08/24 02:42:26;;;;;;;20.33;14.57;;;21.60;69.30;;;;;;5113348;28;20032;-74
2022/08/24 02:44:53;;;;;;;22.25;15.25;;;21.50;69.60;;;;;;5113316;28;20471;-75
2022/08/24 02:47:20;;;;;;;21.67;15.43;;;21.40;70.30;;;;;;5113284;28;20024;-74
2022/08/24 02:49:47;;;;;;;18.52;15.00;;;21.30;70.50;;;;;;5113299;28;20035;-74
2022/08/24 02:52:12;;;;;;;21.35;15.20;;;21.30;70.30;;;;;;5116307;28;20035;-74
2022/08/24 02:54:38;;;;;;;23.58;15.63;;;21.40;70.60;;;;;;5117237;28;20024;-75
2022/08/24 02:57:04;;;;;;;23.30;14.52;;;21.30;70.60;;;;;;5117224;28;20038;-74
2022/08/24 02:59:30;;;;;;;19.45;14.48;;;21.30;70.60;;;;;;5117125;28;20031;-74
2022/08/24 03:01:55;;;;;;;15.82;12.85;;;21.20;70.30;;;;;;5117131;28;20016;-74
2022/08/24 03:04:21;;;;;;;15.07;11.45;;;21.30;70.90;;;;;;5116185;28;20391;-74
2022/08/24 03:06:47;;;;;;;18.25;12.90;;;21.30;70.10;;;;;;5116155;28;20028;-75
2022/08/24 03:09:13;;;;;;;17.75;13.40;;;21.20;70.10;;;;;;5117007;28;20378;-75
2022/08/24 03:11:38;;;;;;;16.65;13.27;;;21.20;70.40;;;;;;5116680;28;20119;-75
2022/08/24 03:14:04;;;;;;;21.42;14.93;;;21.20;70.40;;;;;;5116854;28;20020;-74
2022/08/24 03:16:30;;;;;;;18.92;15.18;;;21.10;70.30;;;;;;5115826;28;20028;-74
2022/08/24 03:18:56;;;;;;;19.30;14.93;;;21.10;70.20;;;;;;5116770;28;20024;-74
2022/08/24 03:21:22;;;;;;;22.15;15.57;;;21.10;70.20;;;;;;5116735;28;20039;-74
2022/08/24 03:23:48;;;;;;;22.50;16.45;;;21.10;70.00;;;;;;5116728;28;20032;-74
2022/08/24 03:26:14;;;;;;;22.90;16.90;;;21.20;70.10;;;;;;5116625;28;20053;-74
2022/08/24 03:28:40;;;;;;;20.77;14.75;;;21.10;70.20;;;;;;5116561;28;20031;-75
2022/08/24 03:31:05;;;;;;;22.27;15.38;;;21.00;70.20;;;;;;5115740;28;20032;-74
2022/08/24 03:33:31;;;;;;;23.75;15.48;;;21.00;70.00;;;;;;5098584;28;20029;-74
2022/08/24 03:35:57;;;;;;;22.50;15.90;;;21.00;70.20;;;;;;5116440;28;20036;-74
2022/08/24 03:38:23;;;;;;;22.55;15.85;;;21.00;70.20;;;;;;5115492;28;20020;-74
2022/08/24 03:40:49;;;;;;;25.20;16.45;;;20.90;69.90;;;;;;5115430;28;20012;-74
2022/08/24 03:46:01;;;;;;;22.85;16.27;;;20.90;70.20;;;;;;5115756;28;20121;-74
2022/08/24 03:48:28;;;;;;;22.92;15.75;;;20.90;70.10;;;;;;5115508;28;20032;-74
2022/08/24 03:50:54;;;;;;;25.23;16.73;;;20.90;70.00;;;;;;5115416;28;20040;-74
2022/08/24 03:53:21;;;;;;;22.55;16.65;;;20.90;70.60;;;;;;5115023;28;20036;-74
2022/08/24 03:55:46;;;;;;;23.67;16.05;;;20.90;69.70;;;;;;5116088;28;20030;-74
2022/08/24 03:58:12;;;;;;;21.88;15.73;;;20.90;69.60;;;;;;5116022;28;20024;-74
2022/08/24 04:00:41;;;;;;;24.15;16.02;;;20.70;69.70;;;;;;5115991;28;20016;-74
2022/08/24 04:03:08;;;;;;;24.25;16.42;;;20.60;69.90;;;;;;5114868;28;20046;-75
2022/08/24 04:05:33;;;;;;;24.15;14.93;;;20.40;70.20;;;;;;5115919;28;20028;-74
2022/08/24 04:07:59;;;;;;;21.67;14.75;;;20.40;70.60;;;;;;5115984;28;20109;-74
2022/08/24 04:10:24;;;;;;;25.58;16.45;;;20.50;70.40;;;;;;5114686;28;20024;-74
2022/08/24 04:12:50;;;;;;;23.15;16.23;;;20.50;70.50;;;;;;5114670;28;20032;-74
2022/08/24 04:15:16;;;;;;;24.10;16.38;;;20.50;70.30;;;;;;5114792;28;20027;-74
2022/08/24 04:17:41;;;;;;;23.88;16.98;;;20.50;70.00;;;;;;5114852;28;20352;-74
2022/08/24 04:20:07;;;;;;;23.27;16.70;;;20.50;70.10;;;;;;5115618;28;20035;-74
2022/08/24 04:22:33;;;;;;;25.27;17.65;;;20.50;70.00;;;;;;5115678;28;20062;-74
2022/08/24 04:24:59;;;;;;;25.65;18.00;;;20.40;69.90;;;;;;5115525;28;20028;-74
2022/08/24 04:27:25;;;;;;;28.00;17.88;;;20.50;70.10;;;;;;5115443;28;20032;-74
2022/08/24 04:29:50;;;;;;;28.00;18.98;;;20.40;70.20;;;;;;5115375;28;20099;-75
2022/08/24 04:32:16;;;;;;;25.08;17.05;;;20.40;70.50;;;;;;5114342;28;20032;-74
2022/08/24 04:34:43;;;;;;;27.30;18.00;;;20.40;70.50;;;;;;5115289;28;20024;-74
2022/08/24 04:37:09;;;;;;;27.42;17.67;;;20.40;70.30;;;;;;5115268;28;20050;-74
2022/08/24 04:39:34;;;;;;;27.02;17.35;;;20.40;70.20;;;;;;5115234;28;20081;-74
2022/08/24 04:42:00;;;;;;;25.20;16.98;;;20.30;70.00;;;;;;5097519;28;20467;-74
2022/08/24 04:44:26;;;;;;;24.00;17.08;;;20.20;70.20;;;;;;5114272;28;20032;-74
2022/08/24 04:46:51;;;;;;;27.15;18.55;;;20.20;70.50;;;;;;5115054;28;20028;-74
2022/08/24 04:49:17;;;;;;;28.80;18.83;;;20.30;70.40;;;;;;5114048;28;20047;-74
2022/08/24 04:51:42;;;;;;;27.63;18.40;;;20.40;70.40;;;;;;5115045;28;20588;-74
2022/08/24 04:54:08;;;;;;;26.42;17.65;;;20.30;70.80;;;;;;5115034;28;20031;-74
2022/08/24 04:56:35;;;;;;;24.02;15.93;;;20.30;70.90;;;;;;5113817;28;20115;-74
2022/08/24 04:59:01;;;;;;;26.45;16.38;;;20.20;70.70;;;;;;5114871;28;20020;-74
2022/08/24 05:01:28;;;;;;;25.67;16.67;;;20.10;71.00;;;;;;5113797;28;20016;-74
2022/08/24 05:03:54;;;;;;;28.50;18.15;;;20.10;71.50;;;;;;5114736;28;20025;-74
2022/08/24 05:06:25;;;;;;;25.73;17.60;;;20.10;72.00;;;;;;5114723;28;20051;-74
2022/08/24 05:08:51;;;;;;;30.52;18.55;;;20.20;72.00;;;;;;5113702;28;20025;-74
2022/08/24 05:11:18;;;;;;;26.80;18.65;;;20.20;71.70;;;;;;5114430;28;20128;-74
2022/08/24 05:13:44;;;;;;;32.03;19.08;;;20.10;72.90;;;;;;5114286;28;20025;-74
2022/08/24 05:16:14;;;;;;;30.52;17.95;;;20.00;72.80;;;;;;5114514;28;20031;-74
2022/08/24 05:18:40;;;;;;;24.92;17.73;;;20.20;72.70;;;;;;5114534;28;20012;-74
2022/08/24 05:21:08;;;;;;;24.70;16.85;;;20.20;72.40;;;;;;5114445;28;20029;-74
2022/08/24 05:23:35;;;;;;;26.27;17.30;;;20.30;72.20;;;;;;5114362;28;20498;-74
2022/08/24 05:26:12;;;;;;;26.27;17.38;;;20.40;72.00;;;;;;5113316;28;20027;-74
2022/08/24 05:28:38;;;;;;;28.30;18.25;;;20.40;71.60;;;;;;5114392;28;20032;-74
2022/08/24 05:31:12;;;;;;;27.13;18.35;;;20.40;71.50;;;;;;5114262;28;20024;-74
2022/08/24 05:33:38;;;;;;;28.02;18.67;;;20.40;71.70;;;;;;5114135;28;20031;-74
2022/08/24 05:36:05;;;;;;;28.67;19.33;;;20.50;71.90;;;;;;5113236;28;20035;-74
2022/08/24 05:38:32;;;;;;;31.98;21.05;;;20.50;72.30;;;;;;5114132;28;20088;-74
2022/08/24 05:41:02;;;;;;;31.15;20.52;;;20.40;72.80;;;;;;5114049;28;20045;-74
2022/08/24 05:43:28;;;;;;;27.88;19.13;;;20.30;73.10;;;;;;5114095;28;20031;-74
2022/08/24 05:45:54;;;;;;;30.33;20.25;;;20.30;73.20;;;;;;5113982;28;20034;-74
2022/08/24 05:48:20;;;;;;;32.55;21.52;;;20.30;73.70;;;;;;5079408;28;20113;-74
2022/08/24 05:50:51;;;;;;;28.42;19.85;;;20.40;73.90;;;;;;5113928;28;20040;-74
2022/08/24 05:53:17;;;;;;;33.85;22.00;;;20.50;73.70;;;;;;5113994;28;20028;-74
2022/08/24 05:55:43;;;;;;;30.27;21.65;;;20.50;73.90;;;;;;5113850;28;20039;-74
2022/08/24 05:58:08;;;;;;;31.95;22.90;;;20.50;74.10;;;;;;5112844;28;20079;-74
2022/08/24 06:00:36;;;;;;;40.25;24.17;;;20.60;74.30;;;;;;5112812;28;20031;-74
2022/08/24 06:03:01;;;;;;;37.17;25.15;;;20.60;74.60;;;;;;5113759;28;20028;-74
2022/08/24 06:05:27;;;;;;;35.42;24.38;;;20.60;75.00;;;;;;5113690;28;20093;-74
2022/08/24 06:07:53;;;;;;;41.72;25.45;;;20.70;75.10;;;;;;5113700;28;20080;-74
2022/08/24 06:10:19;;;;;;;39.78;24.90;;;20.80;75.30;;;;;;5113645;28;20020;-74
2022/08/24 06:12:48;;;;;;;35.85;25.98;;;20.80;75.50;;;;;;5113391;28;20045;-74
2022/08/24 06:15:14;;;;;;;36.88;25.50;;;20.80;76.80;;;;;;5113598;28;20031;-74
2022/08/24 06:17:39;;;;;;;35.95;25.10;;;20.80;76.20;;;;;;5113556;28;20027;-74
2022/08/24 06:20:06;;;;;;;42.03;26.25;;;20.90;76.30;;;;;;5113526;28;20024;-74
2022/08/24 06:22:32;;;;;;;38.50;26.38;;;20.90;76.40;;;;;;5113508;28;20044;-74
2022/08/24 06:27:44;;;;;;;46.72;30.23;;;21.00;76.90;;;;;;5120228;28;20078;-74
2022/08/24 06:30:11;;;;;;;40.13;28.83;;;21.10;77.00;;;;;;5120108;28;20035;-74
2022/08/24 06:32:38;;;;;;;45.72;30.83;;;21.10;77.10;;;;;;5120138;28;20032;-75
2022/08/24 06:35:04;;;;;;;47.78;32.83;;;21.20;77.20;;;;;;5120175;28;20018;-74
2022/08/24 06:37:30;;;;;;;48.28;32.22;;;21.30;77.30;;;;;;5120101;28;20031;-75
2022/08/24 06:39:57;;;;;;;47.55;32.28;;;21.40;77.70;;;;;;5119224;28;20016;-75
2022/08/24 06:42:28;;;;;;;52.83;31.67;;;21.40;77.80;;;;;;5120108;28;20032;-75
2022/08/24 06:44:54;;;;;;;48.80;31.10;;;21.50;77.90;;;;;;5120299;28;20028;-74
2022/08/24 06:47:20;;;;;;;43.20;30.83;;;21.60;77.90;;;;;;5120061;28;20036;-75
2022/08/24 06:49:46;;;;;;;42.83;29.50;;;21.60;77.90;;;;;;5120054;28;20088;-75
2022/08/24 06:52:12;;;;;;;40.88;28.98;;;21.70;77.80;;;;;;5119920;28;20039;-75
2022/08/24 06:54:37;;;;;;;40.33;27.00;;;21.80;77.70;;;;;;5119971;28;20016;-74
2022/08/24 06:57:04;;;;;;;36.72;25.30;;;21.80;77.50;;;;;;5119971;28;20038;-75
2022/08/24 06:59:31;;;;;;;37.20;24.63;;;21.90;77.30;;;;;;5119964;28;20032;-75
2022/08/24 07:01:57;;;;;;;39.42;25.45;;;22.00;77.20;;;;;;5119912;28;20040;-75
2022/08/24 07:04:25;;;;;;;36.28;24.05;;;22.10;77.00;;;;;;5119905;28;20025;-75
2022/08/24 07:06:51;;;;;;;40.95;25.40;;;22.10;76.80;;;;;;5118936;28;20024;-75
2022/08/24 07:09:17;;;;;;;36.00;26.85;;;22.20;76.70;;;;;;5119878;28;20032;-75
2022/08/24 07:11:43;;;;;;;36.95;25.67;;;22.20;76.60;;;;;;5119776;28;20052;-74
2022/08/24 07:14:08;;;;;;;37.33;24.42;;;22.30;76.40;;;;;;5119827;28;20028;-74
2022/08/24 07:16:35;;;;;;;37.28;24.45;;;22.40;76.30;;;;;;5119815;28;20016;-75
2022/08/24 07:19:02;;;;;;;36.28;25.48;;;22.40;75.90;;;;;;5119768;28;20077;-75
2022/08/24 07:21:28;;;;;;;36.28;25.10;;;22.50;75.70;;;;;;5119622;28;20020;-75
2022/08/24 07:23:57;;;;;;;35.72;25.35;;;22.60;76.00;;;;;;5119741;28;20028;-74
2022/08/24 07:26:25;;;;;;;34.90;25.55;;;22.70;75.80;;;;;;5118682;28;20028;-75
2022/08/24 07:29:00;;;;;;;34.40;23.00;;;22.70;75.60;;;;;;5119632;28;20095;-75
2022/08/24 07:31:26;;;;;;;33.03;23.80;;;22.80;75.30;;;;;;5119726;28;20038;-75
2022/08/24 07:33:52;;;;;;;36.05;22.20;;;22.90;75.00;;;;;;5118609;28;20055;-75
2022/08/24 07:36:18;;;;;;;31.77;22.33;;;23.00;74.70;;;;;;5119626;28;20049;-74
2022/08/24 07:38:44;;;;;;;33.70;22.92;;;23.00;74.30;;;;;;5115623;28;20024;-74
2022/08/24 07:41:09;;;;;;;30.98;22.73;;;23.20;73.90;;;;;;5116379;28;20050;-74
2022/08/24 07:43:35;;;;;;;34.17;20.02;;;23.30;73.60;;;;;;5116325;28;20111;-74
2022/08/24 07:46:04;;;;;;;26.17;17.88;;;23.30;73.00;;;;;;5115410;28;20043;-74
2022/08/24 07:48:30;;;;;;;24.17;18.05;;;23.40;73.00;;;;;;5116267;28;20047;-74
2022/08/24 07:50:58;;;;;;;24.05;17.80;;;23.50;71.70;;;;;;5115175;28;20024;-74
2022/08/24 07:53:24;;;;;;;26.25;17.73;;;23.60;71.10;;;;;;5116190;28;20031;-74
2022/08/24 07:55:54;;;;;;;21.70;16.98;;;23.70;71.00;;;;;;5115213;28;20028;-74
2022/08/24 07:58:20;;;;;;;25.45;17.90;;;23.90;71.00;;;;;;5115087;28;20028;-75
2022/08/24 08:00:47;;;;;;;26.10;17.75;;;24.00;71.00;;;;;;5116158;28;20040;-74
2022/08/24 08:03:13;;;;;;;26.42;18.48;;;24.10;71.00;;;;;;5115970;28;20046;-74
2022/08/24 08:05:42;;;;;;;29.77;18.80;;;24.20;71.00;;;;;;5114905;28;20028;-74
2022/08/24 08:08:08;;;;;;;26.33;17.77;;;24.30;70.80;;;;;;5115860;28;20079;-75
2022/08/24 08:10:36;;;;;;;22.80;16.58;;;24.40;70.30;;;;;;5115793;28;20020;-74
2022/08/24 08:13:04;;;;;;;19.65;14.27;;;24.50;69.70;;;;;;5115773;28;20028;-75
2022/08/24 08:15:30;;;;;;;21.88;13.23;;;24.60;69.00;;;;;;5114726;28;20024;-74
2022/08/24 08:17:57;;;;;;;17.65;11.13;;;24.60;67.40;;;;;;5115696;28;20020;-75
2022/08/24 08:20:23;;;;;;;17.52;12.20;;;24.70;67.10;;;;;;5115656;28;20023;-75
2022/08/24 08:25:37;;;;;;;17.17;9.20;;;24.90;65.00;;;;;;5115604;28;20066;-74
2022/08/24 08:28:04;;;;;;;16.98;9.93;;;25.00;64.90;;;;;;5114393;28;20035;-74
2022/08/24 08:30:30;;;;;;;14.77;10.45;;;25.20;64.70;;;;;;5115572;28;20043;-74
2022/08/24 08:32:56;;;;;;;12.60;9.10;;;25.30;64.10;;;;;;5115451;28;20021;-74
2022/08/24 08:35:21;;;;;;;13.02;8.48;;;25.30;63.60;;;;;;5114512;28;20035;-75
2022/08/24 08:37:47;;;;;;;24.02;8.90;;;25.40;62.80;;;;;;5114343;28;20053;-74
2022/08/24 08:40:58;;;;;;;12.73;8.68;;;25.50;63.20;;;;;;5115268;28;20099;-75
2022/08/24 08:43:42;;;;;;;15.30;7.93;;;25.60;62.20;;;;;;5100833;28;20020;-74
2022/08/24 08:46:31;;;;;;;6.72;4.80;;;25.70;62.30;;;;;;5114103;28;20019;-74
2022/08/24 08:49:11;;;;;;;13.63;10.13;;;25.80;60.80;;;;;;5104301;28;20211;-74
2022/08/24 08:52:05;;;;;;;21.48;10.38;;;25.90;61.30;;;;;;5115036;28;20028;-75
2022/08/24 08:55:13;;;;;;;13.82;7.88;;;25.90;61.60;;;;;;5113969;28;20059;-75
2022/08/24 08:57:45;;;;;;;10.38;7.80;;;26.00;61.20;;;;;;5109890;28;20056;-75
2022/08/24 09:00:22;;;;;;;11.23;8.18;;;26.10;60.90;;;;;;5114860;28;20024;-74
2022/08/24 09:03:25;;;;;;;11.27;6.70;;;26.20;60.30;;;;;;5114906;28;20020;-75
2022/08/24 09:06:00;;;;;;;13.60;8.88;;;26.20;60.00;;;;;;5114910;28;20016;-74
2022/08/24 09:08:40;;;;;;;12.20;9.18;;;26.30;59.70;;;;;;5114685;28;20051;-74
2022/08/24 09:11:06;;;;;;;13.50;8.50;;;26.30;59.90;;;;;;5114592;28;20048;-74
2022/08/24 09:14:09;;;;;;;11.23;8.23;;;26.40;60.30;;;;;;5114492;28;20035;-74
2022/08/24 09:16:56;;;;;;;12.02;7.90;;;26.50;59.20;;;;;;5114527;28;20065;-74
2022/08/24 09:20:06;;;;;;;8.30;4.85;;;26.60;58.80;;;;;;5114622;28;20368;-74
2022/08/24 09:22:38;;;;;;;10.27;5.65;;;26.70;58.30;;;;;;5092444;28;20086;-74
2022/08/24 09:25:15;;;;;;;10.88;6.03;;;26.70;57.40;;;;;;5112247;28;20047;-74
2022/08/24 09:28:10;;;;;;;7.32;5.70;;;26.90;57.40;;;;;;5113368;28;20054;-74
2022/08/24 09:31:07;;;;;;;7.55;5.57;;;26.90;57.10;;;;;;5114276;28;20043;-74
2022/08/24 09:33:40;;;;;;;8.65;4.28;;;27.00;57.00;;;;;;5114188;28;20083;-74
2022/08/24 09:36:32;;;;;;;8.00;4.20;;;27.10;57.20;;;;;;5114262;28;20059;-74
2022/08/24 09:39:13;;;;;;;7.18;4.70;;;27.30;57.10;;;;;;5105635;28;20043;-74
2022/08/24 09:41:44;;;;;;;5.32;3.25;;;27.30;54.90;;;;;;5114146;28;20016;-74
2022/08/24 09:44:40;;;;;;;3.90;2.70;;;27.30;53.70;;;;;;5114241;28;20024;-74
2022/08/24 09:47:45;;;;;;;4.78;3.50;;;27.30;52.60;;;;;;5114196;28;20028;-73
2022/08/24 09:50:26;;;;;;;4.20;3.30;;;27.40;53.80;;;;;;5113017;28;20468;-73
2022/08/24 09:53:18;;;;;;;4.60;3.10;;;27.50;54.90;;;;;;5114001;28;20023;-73
2022/08/24 09:56:17;;;;;;;5.68;4.05;;;27.60;55.30;;;;;;5112949;28;20020;-74
2022/08/24 09:59:18;;;;;;;5.78;3.20;;;27.80;54.10;;;;;;5113857;28;20476;-73
2022/08/24 10:02:21;;;;;;;3.22;2.42;;;27.90;54.10;;;;;;5112052;28;20046;-73
2022/08/24 10:05:02;;;;;;;3.50;2.72;;;28.00;52.70;;;;;;5113930;28;20059;-73
2022/08/24 10:07:40;;;;;;;4.45;3.42;;;28.00;52.90;;;;;;5113740;28;20020;-73
2022/08/24 10:10:19;;;;;;;5.53;2.85;;;28.10;52.60;;;;;;5113855;28;20060;-74
2022/08/24 10:12:53;;;;;;;4.78;2.53;;;28.20;52.50;;;;;;5113533;28;20040;-73
2022/08/24 10:15:44;;;;;;;3.20;2.30;;;28.30;52.50;;;;;;5112674;28;20024;-74
2022/08/24 10:18:34;;;;;;;3.42;2.40;;;28.50;50.10;;;;;;5112604;28;20024;-73
2022/08/24 10:21:03;;;;;;;5.10;2.65;;;28.50;50.00;;;;;;5113735;28;20098;-73
2022/08/24 10:23:39;;;;;;;4.32;2.95;;;28.50;49.90;;;;;;5112532;28;20032;-73
2022/08/24 10:26:17;;;;;;;5.07;3.03;;;28.50;51.20;;;;;;5113356;28;20028;-73
2022/08/24 10:29:20;;;;;;;4.70;3.13;;;28.70;52.00;;;;;;5113109;28;20020;-73
2022/08/24 10:31:47;;;;;;;4.07;2.60;;;28.80;51.10;;;;;;5113401;28;20032;-73
2022/08/24 10:34:21;;;;;;;4.13;2.53;;;28.90;49.90;;;;;;5113097;28;20027;-73
2022/08/24 10:37:24;;;;;;;6.13;2.90;;;28.90;49.00;;;;;;5113208;28;20031;-73
2022/08/24 10:40:00;;;;;;;3.83;2.53;;;28.90;49.30;;;;;;5113441;28;20031;-73
2022/08/24 10:45:43;;;;;;;7.47;3.10;;;29.00;49.30;;;;;;5113438;28;20039;-73
2022/08/24 10:48:30;;;;;;;3.55;1.83;;;29.10;49.90;;;;;;5113437;28;20084;-73
2022/08/24 10:51:17;;;;;;;2.53;1.80;;;29.30;49.10;;;;;;5113278;28;20024;-73
2022/08/24 10:53:51;;;;;;;2.38;2.10;;;29.20;48.10;;;;;;5112126;28;20062;-73
2022/08/24 10:56:39;;;;;;;4.75;2.13;;;29.20;47.10;;;;;;5113075;28;20016;-74
2022/08/24 10:59:32;;;;;;;2.90;2.00;;;29.10;46.90;;;;;;5113332;28;20019;-74
2022/08/24 11:02:26;;;;;;;3.08;2.15;;;28.90;47.90;;;;;;5113239;28;20025;-74
2022/08/24 11:05:01;;;;;;;3.05;2.10;;;28.80;47.50;;;;;;5113242;28;20019;-74
2022/08/24 11:07:28;;;;;;;3.60;2.50;;;28.80;48.60;;;;;;5112131;28;20032;-74
2022/08/24 11:09:57;;;;;;;4.25;2.53;;;28.80;48.10;;;;;;5113115;28;20024;-74
2022/08/24 11:12:39;;;;;;;5.30;2.20;;;28.90;48.60;;;;;;5114458;28;20051;-74
2022/08/24 11:15:16;;;;;;;2.92;2.40;;;28.90;47.30;;;;;;5117136;28;20016;-74
2022/08/24 11:17:55;;;;;;;3.55;2.42;;;29.00;48.50;;;;;;5117070;28;20016;-74
2022/08/24 11:20:31;;;;;;;4.40;2.13;;;29.10;49.60;;;;;;5116852;28;20016;-74
2022/08/24 11:23:05;;;;;;;2.70;2.10;;;29.20;48.30;;;;;;5116865;28;20028;-74
2022/08/24 11:25:34;;;;;;;4.80;2.22;;;29.20;47.20;;;;;;5116826;28;20062;-74
2022/08/24 11:28:19;;;;;;;4.53;2.42;;;29.10;47.70;;;;;;5116459;28;20020;-74
2022/08/24 11:30:45;;;;;;;3.00;2.20;;;29.00;47.80;;;;;;5116558;28;20024;-74
2022/08/24 11:33:33;;;;;;;5.75;2.28;;;29.00;48.00;;;;;;5116453;28;20043;-74
2022/08/24 11:36:00;;;;;;;3.35;2.50;;;28.90;47.20;;;;;;5116577;28;20023;-74
2022/08/24 11:38:30;;;;;;;5.75;2.83;;;28.90;47.90;;;;;;5116492;28;20055;-74
2022/08/24 11:41:21;;;;;;;3.90;2.00;;;28.90;47.80;;;;;;5116587;28;20016;-74
2022/08/24 11:44:24;;;;;;;4.72;2.05;;;28.90;48.40;;;;;;5116447;28;20031;-74
2022/08/24 11:47:16;;;;;;;2.85;2.17;;;28.90;47.70;;;;;;5116376;28;20030;-74
2022/08/24 11:50:05;;;;;;;7.68;2.58;;;28.90;48.00;;;;;;5107624;28;20044;-74
2022/08/24 11:53:00;;;;;;;3.95;2.47;;;28.80;48.00;;;;;;5116167;28;20057;-74
2022/08/24 11:55:44;;;;;;;3.28;2.10;;;28.80;46.90;;;;;;5116177;28;20031;-74
2022/08/24 11:58:27;;;;;;;3.55;1.90;;;28.90;46.80;;;;;;5116138;28;20031;-74
2022/08/24 12:01:11;;;;;;;2.08;1.85;;;29.10;47.80;;;;;;5116188;28;20028;-74
2022/08/24 12:03:46;;;;;;;2.08;1.80;;;29.30;47.10;;;;;;5116109;28;20028;-74
2022/08/24 12:06:40;;;;;;;2.40;2.10;;;29.60;47.20;;;;;;5114905;28;20036;-74
2022/08/24 12:09:24;;;;;;;2.40;2.03;;;29.90;46.30;;;;;;5115874;28;20058;-74
2022/08/24 12:12:12;;;;;;;3.40;2.20;;;30.10;46.60;;;;;;5115502;28;20043;-74
2022/08/24 12:15:03;;;;;;;4.13;2.38;;;30.20;46.10;;;;;;5115834;28;20036;-74
2022/08/24 12:17:50;;;;;;;4.00;1.75;;;30.20;44.50;;;;;;5115745;28;20062;-74
2022/08/24 12:20:40;;;;;;;2.83;2.15;;;30.40;46.50;;;;;;5115711;28;20024;-74
2022/08/24 12:23:18;;;;;;;3.50;2.03;;;30.50;43.50;;;;;;5115190;28;20027;-74
2022/08/24 12:26:00;;;;;;;4.07;2.65;;;30.50;42.40;;;;;;5115551;28;20020;-73
2022/08/24 12:28:38;;;;;;;2.60;1.70;;;30.60;43.40;;;;;;5115501;28;20020;-74
2022/08/24 12:31:46;;;;;;;2.17;1.88;;;30.70;43.70;;;;;;5115492;28;20022;-74
2022/08/24 12:34:24;;;;;;;2.95;2.13;;;30.90;43.40;;;;;;5114520;28;20056;-74
2022/08/24 12:37:11;;;;;;;4.38;2.17;;;30.90;42.70;;;;;;5115392;28;20032;-74
2022/08/24 12:39:52;;;;;;;3.28;2.20;;;30.90;43.30;;;;;;5115278;28;20023;-74
2022/08/24 12:42:38;;;;;;;2.53;2.00;;;30.90;41.90;;;;;;5115400;28;20028;-74
2022/08/24 12:45:11;;;;;;;5.28;2.60;;;30.90;42.50;;;;;;5115114;28;20087;-74
2022/08/24 12:47:53;;;;;;;4.30;2.40;;;30.80;42.80;;;;;;5115040;28;20020;-74
2022/08/24 12:50:56;;;;;;;3.47;2.53;;;30.80;42.80;;;;;;5114029;28;20031;-74
2022/08/24 12:54:21;;;;;;;5.30;2.50;;;30.90;42.60;;;;;;5115115;28;20020;-74
2022/08/24 12:56:59;;;;;;;3.03;2.33;;;31.00;42.20;;;;;;5092872;28;20025;-74
2022/08/24 12:59:36;;;;;;;3.38;2.22;;;31.10;41.80;;;;;;5092893;28;20039;-74
2022/08/24 13:02:13;;;;;;;4.53;2.20;;;31.10;41.80;;;;;;5109778;28;20078;-74
2022/08/24 13:04:58;;;;;;;2.83;1.88;;;31.20;41.50;;;;;;5114876;28;20020;-74
2022/08/24 13:07:23;;;;;;;7.55;2.50;;;31.30;41.30;;;;;;5114889;28;20016;-74
2022/08/24 13:09:52;;;;;;;4.63;2.10;;;31.30;42.40;;;;;;5114639;28;20091;-74
2022/08/24 13:12:36;;;;;;;3.80;2.50;;;31.30;41.20;;;;;;5114403;28;20058;-74
2022/08/24 13:15:21;;;;;;;4.03;2.30;;;31.20;40.50;;;;;;5113503;28;20031;-74